Time;durP1;ratioP1;P1;durP2;ratioP2;P2;SDS_P1;SDS_P2;PMS_P1;PMS_P2;Temp;Humidity;BMP_temperature;BMP_pressure;BME280_temperature;BME280_humidity;BME280_pressure;Samples;Min_cycle;Max_cycle;Signal;HPM_P1;HPM_P2
2022/04/22 00:00:26;;;;;;;15.32;7.20;;;;;;;;;;5093912;28;20047;-61
2022/04/22 00:02:52;;;;;;;10.90;6.78;;;;;;;;;;5088889;28;20097;-61
2022/04/22 00:05:18;;;;;;;12.50;8.13;;;;;;;;;;5082030;28;20494;-61
2022/04/22 00:07:44;;;;;;;13.65;7.85;;;;;;;;;;5092646;28;20086;-61
2022/04/22 00:10:11;;;;;;;16.05;7.82;;;;;;;;;;5092258;28;20123;-61
2022/04/22 00:12:37;;;;;;;15.00;7.68;;;;;;;;;;5083804;28;20037;-61
2022/04/22 00:15:03;;;;;;;12.48;7.72;;;;;;;;;;5078496;28;20043;-61
2022/04/22 00:17:29;;;;;;;18.95;8.50;;;;;;;;;;5080470;28;20573;-61
2022/04/22 00:19:55;;;;;;;12.38;7.78;;;;;;;;;;5073272;28;20120;-61
2022/04/22 00:22:21;;;;;;;12.50;7.60;;;;;;;;;;5081282;28;20044;-61
2022/04/22 00:24:47;;;;;;;13.93;8.27;;;;;;;;;;5092156;28;20405;-61
2022/04/22 00:27:13;;;;;;;13.80;7.82;;;;;;;;;;5085848;28;20074;-61
2022/04/22 00:29:39;;;;;;;13.90;7.82;;;;;;;;;;5092280;28;20040;-61
2022/04/22 00:32:06;;;;;;;15.35;7.82;;;;;;;;;;5084355;28;20037;-61
2022/04/22 00:34:31;;;;;;;13.20;7.53;;;;;;;;;;5074060;28;20074;-61
2022/04/22 00:36:57;;;;;;;13.85;7.95;;;;;;;;;;5087301;28;20035;-61
2022/04/22 00:39:24;;;;;;;14.50;7.90;;;;;;;;;;5106960;22;20040;-62
2022/04/22 00:41:50;;;;;;;13.63;8.70;;;;;;;;;;5075559;28;20363;-62
2022/04/22 00:44:16;;;;;;;21.52;7.90;;;;;;;;;;5082641;28;20048;-62
2022/04/22 00:46:42;;;;;;;14.40;7.97;;;;;;;;;;5091401;28;20036;-62
2022/04/22 00:49:08;;;;;;;15.98;8.10;;;;;;;;;;5091688;28;20035;-62
2022/04/22 00:51:34;;;;;;;13.45;8.38;;;;;;;;;;5072323;28;20044;-62
2022/04/22 00:54:02;;;;;;;16.05;8.57;;;;;;;;;;5071701;28;20036;-62
2022/04/22 00:56:29;;;;;;;20.40;8.65;;;;;;;;;;5062476;28;20118;-62
2022/04/22 00:58:57;;;;;;;17.55;9.20;;;;;;;;;;5066299;28;20181;-62
2022/04/22 01:01:24;;;;;;;18.52;9.73;;;;;;;;;;5079647;28;20456;-62
2022/04/22 01:12:09;;;;;;;17.88;9.60;;;;;;;;;;5065912;28;20403;-62
2022/04/22 01:14:35;;;;;;;16.38;10.18;;;;;;;;;;5068744;28;20449;-62
2022/04/22 01:17:01;;;;;;;17.67;10.13;;;;;;;;;;5077630;28;20029;-62
2022/04/22 01:19:28;;;;;;;19.23;10.35;;;;;;;;;;5071304;28;20028;-62
2022/04/22 01:21:54;;;;;;;19.35;10.65;;;;;;;;;;5072182;28;20056;-62
2022/04/22 01:24:20;;;;;;;19.88;11.00;;;;;;;;;;5069618;28;20032;-62
2022/04/22 01:26:46;;;;;;;23.10;11.07;;;;;;;;;;5065072;28;20094;-62
2022/04/22 01:29:14;;;;;;;17.48;10.05;;;;;;;;;;5089500;28;20039;-62
2022/04/22 01:31:40;;;;;;;20.20;11.18;;;;;;;;;;5087610;28;20072;-62
2022/04/22 01:34:06;;;;;;;24.45;11.60;;;;;;;;;;5076399;28;20033;-62
2022/04/22 01:36:32;;;;;;;21.33;11.05;;;;;;;;;;5084546;28;20089;-62
2022/04/22 01:38:58;;;;;;;21.95;11.10;;;;;;;;;;5084600;28;20039;-62
2022/04/22 01:41:24;;;;;;;23.52;11.52;;;;;;;;;;5070743;28;20035;-62
2022/04/22 01:43:51;;;;;;;20.45;11.50;;;;;;;;;;5081392;28;20491;-62
2022/04/22 01:46:17;;;;;;;22.52;11.40;;;;;;;;;;5081599;28;20052;-62
2022/04/22 01:48:43;;;;;;;22.58;12.70;;;;;;;;;;5077836;28;20113;-62
2022/04/22 01:51:09;;;;;;;21.67;11.52;;;;;;;;;;5070303;28;20039;-62
2022/04/22 01:53:35;;;;;;;25.20;13.15;;;;;;;;;;5057594;28;20033;-62
2022/04/22 01:56:01;;;;;;;24.75;12.32;;;;;;;;;;5076453;28;20036;-62
2022/04/22 01:58:27;;;;;;;20.85;11.10;;;;;;;;;;5078912;28;20048;-62
2022/04/22 02:00:53;;;;;;;23.88;12.43;;;;;;;;;;5064762;28;20039;-62
2022/04/22 02:03:18;;;;;;;20.08;11.40;;;;;;;;;;5069488;28;20040;-62
2022/04/22 02:05:44;;;;;;;21.63;11.40;;;;;;;;;;5058435;28;20094;-62
2022/04/22 02:08:12;;;;;;;23.60;12.50;;;;;;;;;;5071083;28;20045;-62
2022/04/22 02:10:38;;;;;;;22.83;11.70;;;;;;;;;;5069821;28;20076;-62
2022/04/22 02:13:05;;;;;;;22.48;10.82;;;;;;;;;;5063063;28;20033;-62
2022/04/22 02:15:31;;;;;;;18.13;10.93;;;;;;;;;;5070702;28;20047;-62
2022/04/22 02:17:57;;;;;;;19.33;10.07;;;;;;;;;;5083703;28;20482;-62
2022/04/22 02:20:23;;;;;;;20.95;10.52;;;;;;;;;;5070625;28;20036;-62
2022/04/22 02:22:49;;;;;;;21.17;11.15;;;;;;;;;;5072578;28;20028;-62
2022/04/22 02:25:15;;;;;;;26.42;11.07;;;;;;;;;;5063456;28;20048;-62
2022/04/22 02:30:26;;;;;;;19.00;10.52;;;;;;;;;;5070913;28;20553;-62
2022/04/22 02:32:52;;;;;;;25.83;10.02;;;;;;;;;;5069964;28;20048;-62
2022/04/22 02:35:20;;;;;;;20.48;9.85;;;;;;;;;;5074446;28;20051;-62
2022/04/22 02:37:47;;;;;;;21.77;11.20;;;;;;;;;;5070179;28;20110;-62
2022/04/22 02:45:26;;;;;;;20.65;10.57;;;;;;;;;;5075301;28;20045;-62
2022/04/22 02:45:44;;;;;;;17.27;9.82;;;;;;;;;;5075184;28;20036;-62
2022/04/22 02:48:10;;;;;;;21.65;10.30;;;;;;;;;;5073768;28;20044;-62
2022/04/22 02:50:36;;;;;;;20.35;9.82;;;;;;;;;;5080255;28;20490;-62
2022/04/22 02:53:01;;;;;;;18.13;10.05;;;;;;;;;;5065451;28;20037;-62
2022/04/22 02:55:27;;;;;;;19.67;9.50;;;;;;;;;;5070513;28;20477;-62
2022/04/22 02:57:54;;;;;;;16.77;8.85;;;;;;;;;;5070504;28;20513;-62
2022/04/22 03:00:20;;;;;;;14.82;10.13;;;;;;;;;;5071111;28;20505;-62
2022/04/22 03:02:46;;;;;;;19.50;10.13;;;;;;;;;;5070111;28;20041;-62
2022/04/22 03:05:12;;;;;;;18.02;10.15;;;;;;;;;;5077380;28;20419;-62
2022/04/22 03:07:38;;;;;;;20.42;10.73;;;;;;;;;;5073397;28;20039;-62
2022/04/22 03:10:05;;;;;;;19.40;10.38;;;;;;;;;;5059920;28;20445;-62
2022/04/22 03:12:31;;;;;;;20.83;10.57;;;;;;;;;;5055113;28;20041;-62
2022/04/22 03:14:57;;;;;;;21.58;11.02;;;;;;;;;;5061646;28;20041;-62
2022/04/22 03:17:23;;;;;;;22.20;11.07;;;;;;;;;;5071863;28;20123;-62
2022/04/22 03:19:49;;;;;;;19.17;10.18;;;;;;;;;;5074387;28;20116;-63
2022/04/22 03:22:16;;;;;;;22.67;10.32;;;;;;;;;;5082230;28;20039;-62
2022/04/22 03:24:42;;;;;;;18.73;9.32;;;;;;;;;;5064571;28;20041;-62
2022/04/22 03:27:08;;;;;;;15.32;8.43;;;;;;;;;;5072788;28;20039;-62
2022/04/22 03:29:35;;;;;;;19.90;10.00;;;;;;;;;;5073695;28;20593;-62
2022/04/22 03:32:01;;;;;;;17.08;9.60;;;;;;;;;;5058070;28;20506;-63
2022/04/22 03:34:27;;;;;;;16.38;9.63;;;;;;;;;;5073184;28;20090;-62
2022/04/22 03:36:53;;;;;;;16.77;9.25;;;;;;;;;;5081546;28;20029;-62
2022/04/22 03:39:19;;;;;;;20.33;10.38;;;;;;;;;;5088616;28;20055;-62
2022/04/22 03:41:45;;;;;;;18.35;8.88;;;;;;;;;;5073899;28;20043;-62
2022/04/22 03:44:11;;;;;;;16.95;9.02;;;;;;;;;;5061343;28;20040;-62
2022/04/22 03:46:37;;;;;;;18.88;9.07;;;;;;;;;;5067869;28;20123;-62
2022/04/22 03:49:04;;;;;;;19.95;9.70;;;;;;;;;;5088462;28;20067;-63
2022/04/22 03:51:31;;;;;;;17.77;9.25;;;;;;;;;;5070241;28;20044;-62
2022/04/22 03:53:57;;;;;;;16.17;8.00;;;;;;;;;;5069923;28;20052;-62
2022/04/22 03:59:08;;;;;;;14.88;7.93;;;;;;;;;;5078065;28;20397;-62
2022/04/22 04:01:34;;;;;;;15.02;8.80;;;;;;;;;;5073049;28;20039;-62
2022/04/22 04:04:01;;;;;;;18.45;9.07;;;;;;;;;;5070269;28;20044;-62
2022/04/22 04:06:27;;;;;;;18.60;9.40;;;;;;;;;;5063132;28;20387;-62
2022/04/22 04:17:07;;;;;;;16.40;7.80;;;;;;;;;;5071773;28;20049;-63
2022/04/22 04:25:11;;;;;;;13.35;7.57;;;;;;;;;;5084433;28;20041;-62
2022/04/22 04:27:37;;;;;;;14.70;7.63;;;;;;;;;;5074197;28;20041;-63
2022/04/22 04:30:07;;;;;;;13.07;7.15;;;;;;;;;;5082139;28;20040;-63
2022/04/22 04:32:33;;;;;;;12.02;6.70;;;;;;;;;;5073206;28;20041;-63
2022/04/22 04:34:59;;;;;;;12.13;7.45;;;;;;;;;;5066904;28;20076;-63
2022/04/22 04:37:25;;;;;;;18.25;7.40;;;;;;;;;;5054383;28;20068;-63
2022/04/22 04:39:51;;;;;;;15.90;7.78;;;;;;;;;;5068264;28;20047;-62
2022/04/22 04:42:17;;;;;;;12.13;7.10;;;;;;;;;;5091497;28;20040;-63
2022/04/22 04:44:42;;;;;;;15.77;6.88;;;;;;;;;;5085035;28;20074;-62
2022/04/22 04:47:08;;;;;;;12.02;6.50;;;;;;;;;;5068161;28;20029;-63
2022/04/22 04:49:34;;;;;;;10.88;6.72;;;;;;;;;;5084644;28;20082;-62
2022/04/22 04:52:00;;;;;;;11.70;6.40;;;;;;;;;;5085831;28;20427;-62
2022/04/22 04:54:26;;;;;;;15.32;6.50;;;;;;;;;;5066076;28;20044;-62
2022/04/22 04:56:52;;;;;;;9.80;6.15;;;;;;;;;;5068691;28;20526;-62
2022/04/22 04:59:18;;;;;;;12.38;6.03;;;;;;;;;;5052424;28;20185;-62
2022/04/22 05:01:44;;;;;;;10.52;6.35;;;;;;;;;;5078199;28;20032;-62
2022/04/22 05:04:10;;;;;;;10.90;5.95;;;;;;;;;;5057625;28;20053;-62
2022/04/22 05:06:36;;;;;;;13.30;6.30;;;;;;;;;;5068719;28;20119;-63
2022/04/22 05:09:02;;;;;;;14.15;6.07;;;;;;;;;;5068776;28;20139;-62
2022/04/22 05:11:28;;;;;;;9.43;5.88;;;;;;;;;;5064565;28;20040;-62
2022/04/22 05:13:54;;;;;;;12.25;6.30;;;;;;;;;;5068181;28;20044;-62
2022/04/22 05:16:20;;;;;;;13.35;5.50;;;;;;;;;;5065039;28;20045;-62
2022/04/22 05:18:46;;;;;;;9.00;4.57;;;;;;;;;;5069842;28;20067;-62
2022/04/22 05:21:12;;;;;;;10.57;4.88;;;;;;;;;;5079215;28;20043;-62
2022/04/22 05:23:38;;;;;;;10.02;5.15;;;;;;;;;;5076100;28;20060;-62
2022/04/22 05:26:04;;;;;;;9.10;5.40;;;;;;;;;;5070676;28;20085;-62
2022/04/22 05:28:30;;;;;;;10.40;5.93;;;;;;;;;;5055384;28;20086;-62
2022/04/22 05:33:43;;;;;;;9.55;5.30;;;;;;;;;;5053369;28;20045;-62
2022/04/22 05:36:09;;;;;;;12.60;5.68;;;;;;;;;;5068810;28;20041;-62
2022/04/22 05:38:35;;;;;;;10.55;5.07;;;;;;;;;;5064326;28;20129;-62
2022/04/22 05:41:02;;;;;;;11.02;5.60;;;;;;;;;;5063492;28;20033;-62
2022/04/22 05:43:28;;;;;;;10.43;5.18;;;;;;;;;;5061691;28;20043;-62
2022/04/22 05:45:54;;;;;;;8.13;5.50;;;;;;;;;;5073945;28;20047;-62
2022/04/22 05:48:20;;;;;;;9.25;5.18;;;;;;;;;;5065816;28;20144;-62
2022/04/22 05:50:46;;;;;;;9.40;4.55;;;;;;;;;;5073675;28;20101;-62
2022/04/22 05:53:12;;;;;;;9.65;5.32;;;;;;;;;;5083953;28;20040;-62
2022/04/22 05:55:38;;;;;;;8.40;4.95;;;;;;;;;;5091624;28;20055;-63
2022/04/22 05:58:04;;;;;;;8.68;5.28;;;;;;;;;;5052089;28;20075;-62
2022/04/22 06:00:39;;;;;;;9.73;5.65;;;;;;;;;;5074126;28;20038;-62
2022/04/22 06:03:06;;;;;;;8.77;4.80;;;;;;;;;;5091635;28;20028;-62
2022/04/22 06:05:32;;;;;;;9.20;4.80;;;;;;;;;;5064625;28;20111;-62
2022/04/22 06:10:51;;;;;;;9.18;5.18;;;;;;;;;;5065634;28;20044;-62
2022/04/22 06:13:17;;;;;;;9.00;5.68;;;;;;;;;;5068424;28;20441;-62
2022/04/22 06:15:43;;;;;;;12.07;5.32;;;;;;;;;;5071432;28;20036;-62
2022/04/22 06:18:10;;;;;;;8.73;5.22;;;;;;;;;;5069510;28;20095;-62
2022/04/22 06:20:36;;;;;;;11.13;5.93;;;;;;;;;;5069211;28;20066;-62
2022/04/22 06:23:01;;;;;;;10.30;5.53;;;;;;;;;;5075019;28;20044;-62
2022/04/22 06:25:28;;;;;;;8.00;5.00;;;;;;;;;;5061558;28;20543;-62
2022/04/22 06:27:54;;;;;;;8.65;5.47;;;;;;;;;;5060798;28;20041;-62
2022/04/22 06:30:21;;;;;;;8.65;5.20;;;;;;;;;;5058481;28;20078;-62
2022/04/22 06:32:48;;;;;;;7.30;4.65;;;;;;;;;;5072749;28;20070;-62
2022/04/22 06:35:15;;;;;;;8.85;4.43;;;;;;;;;;5071305;28;20410;-62
2022/04/22 06:37:42;;;;;;;13.18;4.53;;;;;;;;;;5084213;28;20090;-62
2022/04/22 06:45:48;;;;;;;13.15;5.03;;;;;;;;;;5104652;28;20479;-61
2022/04/22 06:48:15;;;;;;;11.00;5.10;;;;;;;;;;5111268;28;20573;-61
2022/04/22 06:50:42;;;;;;;11.15;5.07;;;;;;;;;;5095740;28;20063;-61
2022/04/22 06:53:09;;;;;;;9.35;4.90;;;;;;;;;;5074227;28;20032;-62
2022/04/22 06:55:35;;;;;;;9.02;4.72;;;;;;;;;;5086264;28;20036;-61
2022/04/22 06:58:01;;;;;;;8.82;4.40;;;;;;;;;;5074931;28;20496;-61
2022/04/22 07:00:28;;;;;;;8.73;4.65;;;;;;;;;;5069119;28;20047;-61
2022/04/22 07:02:54;;;;;;;10.73;5.00;;;;;;;;;;5082409;28;20037;-61
2022/04/22 07:05:20;;;;;;;8.93;4.85;;;;;;;;;;5082458;28;20490;-62
2022/04/22 07:07:47;;;;;;;10.50;4.72;;;;;;;;;;5079087;28;20482;-61
2022/04/22 07:10:13;;;;;;;7.25;4.25;;;;;;;;;;5086505;28;20048;-62
2022/04/22 07:12:39;;;;;;;7.63;4.65;;;;;;;;;;5080270;28;20036;-62
2022/04/22 07:15:06;;;;;;;6.68;4.15;;;;;;;;;;5088936;28;20040;-61
2022/04/22 07:17:33;;;;;;;8.13;5.45;;;;;;;;;;5087377;28;20107;-61
2022/04/22 07:20:05;;;;;;;10.32;4.65;;;;;;;;;;5083896;28;20040;-62
2022/04/22 07:22:32;;;;;;;8.80;4.68;;;;;;;;;;5081138;28;20042;-62
2022/04/22 07:24:58;;;;;;;5.80;3.83;;;;;;;;;;5088526;28;20036;-62
2022/04/22 07:27:28;;;;;;;10.02;4.75;;;;;;;;;;5086001;28;20040;-62
2022/04/22 07:29:55;;;;;;;8.73;4.50;;;;;;;;;;5079035;28;20047;-61
2022/04/22 07:32:21;;;;;;;7.90;4.60;;;;;;;;;;5091619;28;20035;-61
2022/04/22 07:34:47;;;;;;;10.02;4.90;;;;;;;;;;5092714;28;20039;-61
2022/04/22 07:37:13;;;;;;;10.27;5.05;;;;;;;;;;5091062;28;20036;-62
2022/04/22 07:39:40;;;;;;;7.03;3.78;;;;;;;;;;5087292;28;20135;-61
2022/04/22 07:42:11;;;;;;;8.25;3.95;;;;;;;;;;5083977;28;20043;-61
2022/04/22 07:47:23;;;;;;;7.80;4.32;;;;;;;;;;5090243;28;20115;-62
2022/04/22 07:49:50;;;;;;;6.63;4.10;;;;;;;;;;5075132;28;20065;-62
2022/04/22 07:52:16;;;;;;;6.57;4.05;;;;;;;;;;5076396;28;20178;-62
2022/04/22 07:54:42;;;;;;;7.03;4.10;;;;;;;;;;5093198;28;20519;-61
2022/04/22 07:57:10;;;;;;;7.78;4.68;;;;;;;;;;5061034;28;20062;-62
2022/04/22 07:59:36;;;;;;;6.75;4.10;;;;;;;;;;5094328;28;20044;-61
2022/04/22 08:02:02;;;;;;;9.85;3.83;;;;;;;;;;5092122;28;20024;-61
2022/04/22 08:04:28;;;;;;;7.20;3.97;;;;;;;;;;5084451;28;20070;-62
2022/04/22 08:06:54;;;;;;;5.35;3.38;;;;;;;;;;5085533;28;20045;-62
2022/04/22 08:09:20;;;;;;;6.43;3.65;;;;;;;;;;5092139;28;20470;-61
2022/04/22 08:11:46;;;;;;;5.30;3.72;;;;;;;;;;5087710;28;20036;-62
2022/04/22 08:14:12;;;;;;;5.35;3.25;;;;;;;;;;5093873;28;20383;-62
2022/04/22 08:16:39;;;;;;;7.28;3.22;;;;;;;;;;5092398;28;20127;-61
2022/04/22 08:19:04;;;;;;;6.45;3.65;;;;;;;;;;5093268;28;20063;-62
2022/04/22 08:21:33;;;;;;;7.22;2.88;;;;;;;;;;5094309;28;20114;-61
2022/04/22 08:24:02;;;;;;;5.82;3.15;;;;;;;;;;5094210;28;20071;-62
2022/04/22 08:26:31;;;;;;;4.05;2.10;;;;;;;;;;5089294;28;20043;-61
2022/04/22 08:28:57;;;;;;;4.90;2.90;;;;;;;;;;5084729;28;20069;-61
2022/04/22 08:31:22;;;;;;;6.78;3.28;;;;;;;;;;5093365;28;20119;-61
2022/04/22 08:33:49;;;;;;;5.20;3.28;;;;;;;;;;5093182;28;20070;-61
2022/04/22 08:36:15;;;;;;;4.57;2.65;;;;;;;;;;5092490;28;20101;-61
2022/04/22 08:38:41;;;;;;;7.18;3.67;;;;;;;;;;5092501;28;20166;-61
2022/04/22 08:41:09;;;;;;;5.22;2.78;;;;;;;;;;5091246;28;20059;-61
2022/04/22 08:43:35;;;;;;;4.28;3.20;;;;;;;;;;5093064;28;20386;-61
2022/04/22 08:46:01;;;;;;;4.72;2.55;;;;;;;;;;5091764;28;20043;-61
2022/04/22 08:51:14;;;;;;;5.20;2.40;;;;;;;;;;5093227;28;20044;-61
2022/04/22 08:53:41;;;;;;;4.13;2.70;;;;;;;;;;5093216;28;20048;-61
2022/04/22 08:56:09;;;;;;;4.80;2.72;;;;;;;;;;5091002;28;20042;-61
2022/04/22 08:58:36;;;;;;;6.30;2.92;;;;;;;;;;5092311;28;20039;-62
2022/04/22 09:01:02;;;;;;;3.88;2.58;;;;;;;;;;5092166;28;20559;-62
2022/04/22 09:03:28;;;;;;;5.63;2.72;;;;;;;;;;5093212;28;20036;-61
2022/04/22 09:05:58;;;;;;;6.55;2.88;;;;;;;;;;5092304;28;20044;-62
2022/04/22 09:08:24;;;;;;;7.68;2.97;;;;;;;;;;5092359;28;20035;-62
2022/04/22 09:10:54;;;;;;;4.25;2.60;;;;;;;;;;5088402;28;20044;-61
2022/04/22 09:13:24;;;;;;;6.65;2.67;;;;;;;;;;5092779;28;20040;-61
2022/04/22 09:15:50;;;;;;;4.32;2.65;;;;;;;;;;5092689;28;20043;-61
2022/04/22 09:18:16;;;;;;;4.68;2.53;;;;;;;;;;5090842;28;20036;-62
2022/04/22 09:20:42;;;;;;;7.00;2.97;;;;;;;;;;5091056;28;20043;-62
2022/04/22 09:23:23;;;;;;;4.30;2.70;;;;;;;;;;5092589;28;20032;-62
2022/04/22 09:25:49;;;;;;;7.00;3.15;;;;;;;;;;5086634;28;20036;-62
2022/04/22 09:28:15;;;;;;;11.68;3.03;;;;;;;;;;5082740;28;20370;-61
2022/04/22 09:30:42;;;;;;;4.47;3.00;;;;;;;;;;5091968;28;20085;-61
2022/04/22 09:33:10;;;;;;;4.88;2.85;;;;;;;;;;5092409;28;20432;-61
2022/04/22 09:42:38;;;;;;;7.28;2.67;;;;;;;;;;5092200;28;20051;-62
2022/04/22 09:43:52;;;;;;;4.45;2.58;;;;;;;;;;5091686;28;20115;-61
2022/04/22 09:46:24;;;;;;;4.18;2.92;;;;;;;;;;5082387;28;20076;-62
2022/04/22 09:48:51;;;;;;;5.63;2.75;;;;;;;;;;5091340;28;20062;-61
2022/04/22 09:51:27;;;;;;;3.78;2.28;;;;;;;;;;5092300;28;20051;-62
2022/04/22 09:54:00;;;;;;;5.22;2.70;;;;;;;;;;5091288;28;20036;-61
2022/04/22 09:56:27;;;;;;;3.22;2.40;;;;;;;;;;5092213;28;20044;-62
2022/04/22 09:58:53;;;;;;;6.13;2.80;;;;;;;;;;5065575;28;20036;-61
2022/04/22 10:01:19;;;;;;;5.25;2.47;;;;;;;;;;5080670;28;20039;-61
2022/04/22 10:03:45;;;;;;;5.18;2.92;;;;;;;;;;5092382;28;20039;-61
2022/04/22 10:06:12;;;;;;;6.88;3.20;;;;;;;;;;5091707;28;20126;-61
2022/04/22 10:08:39;;;;;;;5.70;2.70;;;;;;;;;;5089614;28;20046;-62
2022/04/22 10:11:06;;;;;;;18.00;3.20;;;;;;;;;;5086149;28;20047;-61
2022/04/22 10:13:39;;;;;;;4.70;2.50;;;;;;;;;;5068831;28;20047;-62
2022/04/22 10:16:06;;;;;;;4.63;2.40;;;;;;;;;;5091541;28;20036;-62
2022/04/22 10:18:34;;;;;;;3.92;2.83;;;;;;;;;;5082482;28;20039;-61
2022/04/22 10:21:00;;;;;;;6.88;3.08;;;;;;;;;;5074975;28;20579;-62
2022/04/22 10:23:26;;;;;;;8.27;3.63;;;;;;;;;;5085921;28;20077;-62
2022/04/22 10:25:53;;;;;;;5.95;2.92;;;;;;;;;;5090746;28;20048;-61
2022/04/22 10:28:19;;;;;;;5.20;2.60;;;;;;;;;;5082569;28;20040;-61
2022/04/22 10:30:46;;;;;;;5.60;2.70;;;;;;;;;;5091911;28;20044;-62
2022/04/22 10:33:12;;;;;;;4.15;2.95;;;;;;;;;;5067315;28;20048;-62
2022/04/22 10:35:40;;;;;;;5.75;3.03;;;;;;;;;;5079545;28;20087;-62
2022/04/22 10:38:06;;;;;;;4.63;3.20;;;;;;;;;;5091364;28;20039;-62
2022/04/22 10:40:32;;;;;;;6.72;3.53;;;;;;;;;;5090031;28;20111;-62
2022/04/22 10:43:00;;;;;;;7.80;3.70;;;;;;;;;;5088892;28;20115;-62
2022/04/22 10:48:25;;;;;;;5.75;3.00;;;;;;;;;;5081104;28;20400;-62
2022/04/22 10:50:58;;;;;;;7.07;2.72;;;;;;;;;;5086306;28;20044;-62
2022/04/22 10:53:25;;;;;;;4.10;2.55;;;;;;;;;;5083466;28;20044;-62
2022/04/22 10:55:52;;;;;;;6.95;3.03;;;;;;;;;;5086500;28;20510;-62
2022/04/22 10:58:20;;;;;;;8.10;3.38;;;;;;;;;;5087533;28;20596;-62
2022/04/22 11:00:51;;;;;;;6.38;3.30;;;;;;;;;;5092521;28;20508;-62
2022/04/22 11:03:21;;;;;;;4.07;2.78;;;;;;;;;;5095683;28;20405;-62
2022/04/22 11:06:10;;;;;;;15.60;3.88;;;;;;;;;;5095065;28;20047;-61
2022/04/22 11:08:39;;;;;;;6.20;3.70;;;;;;;;;;5078149;28;20043;-61
2022/04/22 11:11:13;;;;;;;5.38;3.17;;;;;;;;;;5077931;28;20041;-62
2022/04/22 11:13:39;;;;;;;6.35;3.70;;;;;;;;;;5094896;28;20047;-61
2022/04/22 11:16:12;;;;;;;6.60;4.07;;;;;;;;;;5076604;28;20036;-62
2022/04/22 11:18:42;;;;;;;7.68;3.58;;;;;;;;;;5076923;28;20040;-61
2022/04/22 11:21:13;;;;;;;6.93;3.67;;;;;;;;;;5095013;28;20040;-62
2022/04/22 11:23:46;;;;;;;8.02;3.90;;;;;;;;;;5085280;28;20069;-62
2022/04/22 11:26:18;;;;;;;5.68;4.38;;;;;;;;;;5074508;28;20047;-62
2022/04/22 11:28:45;;;;;;;7.63;4.35;;;;;;;;;;5085195;28;20394;-62
2022/04/22 11:31:12;;;;;;;7.07;3.63;;;;;;;;;;5076311;28;20047;-62
2022/04/22 11:33:41;;;;;;;6.43;4.07;;;;;;;;;;5095087;28;20043;-62
2022/04/22 11:36:07;;;;;;;8.57;4.18;;;;;;;;;;5095027;28;20050;-62
2022/04/22 11:38:33;;;;;;;6.70;4.35;;;;;;;;;;5092287;28;20047;-62
2022/04/22 11:40:59;;;;;;;10.73;4.30;;;;;;;;;;5093225;28;20032;-61
2022/04/22 11:43:28;;;;;;;7.75;4.03;;;;;;;;;;5082803;28;20081;-61
2022/04/22 11:45:54;;;;;;;7.03;4.15;;;;;;;;;;5073944;28;20600;-62
2022/04/22 11:48:21;;;;;;;7.85;4.30;;;;;;;;;;5074246;28;20072;-62
2022/04/22 11:50:48;;;;;;;10.25;3.70;;;;;;;;;;5073890;28;20532;-62
2022/04/22 11:53:18;;;;;;;9.85;4.32;;;;;;;;;;5078612;28;20036;-61
2022/04/22 11:55:45;;;;;;;7.50;4.97;;;;;;;;;;5091000;28;20173;-62
2022/04/22 11:58:15;;;;;;;6.97;4.10;;;;;;;;;;5076164;28;20318;-62
2022/04/22 12:06:15;;;;;;;8.60;4.38;;;;;;;;;;5093708;28;20040;-62
2022/04/22 12:09:00;;;;;;;8.85;4.82;;;;;;;;;;5091869;28;20056;-62
2022/04/22 12:11:27;;;;;;;9.73;4.78;;;;;;;;;;5072152;28;20043;-62
2022/04/22 12:13:54;;;;;;;6.22;4.53;;;;;;;;;;5093607;28;20041;-62
2022/04/22 12:16:20;;;;;;;8.93;4.65;;;;;;;;;;5090410;28;20036;-62
2022/04/22 12:18:50;;;;;;;14.70;5.20;;;;;;;;;;5072898;28;20040;-62
2022/04/22 12:21:19;;;;;;;6.32;4.55;;;;;;;;;;5073455;28;20051;-62
2022/04/22 12:23:46;;;;;;;7.55;4.40;;;;;;;;;;5086004;28;20074;-62
2022/04/22 12:26:15;;;;;;;12.63;5.00;;;;;;;;;;5093804;28;20114;-62
2022/04/22 12:29:00;;;;;;;6.55;4.22;;;;;;;;;;5093227;28;20067;-62
2022/04/22 12:31:27;;;;;;;7.80;4.45;;;;;;;;;;5090752;28;20052;-62
2022/04/22 12:34:02;;;;;;;10.60;4.97;;;;;;;;;;5076484;28;20032;-62
2022/04/22 12:36:28;;;;;;;9.85;5.68;;;;;;;;;;5084413;28;20089;-62
2022/04/22 12:38:55;;;;;;;7.53;5.05;;;;;;;;;;5089454;28;20036;-62
2022/04/22 12:41:25;;;;;;;10.55;5.75;;;;;;;;;;5118873;22;20043;-63
2022/04/22 12:43:52;;;;;;;10.60;6.23;;;;;;;;;;5107847;28;20527;-63
2022/04/22 12:52:25;;;;;;;8.15;5.90;;;;;;;;;;5090428;28;20040;-64
2022/04/22 12:55:01;;;;;;;18.13;6.45;;;;;;;;;;5089956;28;20497;-63
2022/04/22 12:57:27;;;;;;;11.63;6.13;;;;;;;;;;5092650;28;20058;-63
2022/04/22 12:59:54;;;;;;;9.50;6.15;;;;;;;;;;5092820;28;20040;-63
2022/04/22 13:02:26;;;;;;;9.95;5.88;;;;;;;;;;5092895;28;20048;-63
2022/04/22 13:04:53;;;;;;;10.02;5.90;;;;;;;;;;5093409;28;20154;-63
2022/04/22 13:07:19;;;;;;;8.98;6.40;;;;;;;;;;5098354;28;20065;-63
2022/04/22 13:09:46;;;;;;;8.63;6.20;;;;;;;;;;5087163;28;20044;-63
2022/04/22 13:12:12;;;;;;;9.20;6.10;;;;;;;;;;5092660;28;20074;-63
2022/04/22 13:14:38;;;;;;;10.18;7.13;;;;;;;;;;5093261;28;20428;-63
2022/04/22 13:17:04;;;;;;;8.88;6.07;;;;;;;;;;5092810;28;20128;-63
2022/04/22 13:19:30;;;;;;;10.68;5.90;;;;;;;;;;5092461;28;20093;-63
2022/04/22 13:21:57;;;;;;;8.15;5.60;;;;;;;;;;5090573;28;20036;-63
2022/04/22 13:24:23;;;;;;;10.38;6.00;;;;;;;;;;5096423;28;20484;-63
2022/04/22 13:26:50;;;;;;;12.43;6.35;;;;;;;;;;5085387;28;20482;-63
2022/04/22 13:29:16;;;;;;;12.85;6.82;;;;;;;;;;5072284;28;20041;-63
2022/04/22 13:31:42;;;;;;;10.88;6.95;;;;;;;;;;5072239;28;20085;-63
2022/04/22 13:34:08;;;;;;;11.05;6.50;;;;;;;;;;5072637;28;20052;-63
2022/04/22 13:36:37;;;;;;;9.13;6.60;;;;;;;;;;5076271;28;20482;-63
2022/04/22 13:39:04;;;;;;;13.95;6.45;;;;;;;;;;5098710;28;20039;-63
2022/04/22 13:41:30;;;;;;;8.40;6.05;;;;;;;;;;5097677;28;20035;-63
2022/04/22 13:43:56;;;;;;;11.13;5.85;;;;;;;;;;5084609;28;20074;-63
2022/04/22 13:54:36;;;;;;;8.80;5.25;;;;;;;;;;5093111;28;20039;-63
2022/04/22 13:57:02;;;;;;;10.38;6.15;;;;;;;;;;5095631;28;20036;-63
2022/04/22 13:59:28;;;;;;;10.98;6.18;;;;;;;;;;5082538;28;20040;-63
2022/04/22 14:01:54;;;;;;;13.98;5.97;;;;;;;;;;5080282;28;20052;-63
2022/04/22 14:04:20;;;;;;;9.25;5.72;;;;;;;;;;5091094;28;20047;-63
2022/04/22 14:06:47;;;;;;;8.77;5.00;;;;;;;;;;5082575;28;20043;-63
2022/04/22 14:09:14;;;;;;;8.93;5.65;;;;;;;;;;5091441;28;20558;-63
2022/04/22 14:11:40;;;;;;;8.65;5.18;;;;;;;;;;5089365;28;20044;-63
2022/04/22 14:14:06;;;;;;;9.88;5.65;;;;;;;;;;5082920;28;20132;-63
2022/04/22 14:16:32;;;;;;;7.40;5.32;;;;;;;;;;5074524;28;20120;-63
2022/04/22 14:18:58;;;;;;;11.63;5.80;;;;;;;;;;5095324;28;20032;-63
2022/04/22 14:21:24;;;;;;;9.82;5.60;;;;;;;;;;5080812;28;20430;-63
2022/04/22 14:23:50;;;;;;;11.60;6.00;;;;;;;;;;5087455;28;20040;-63
2022/04/22 14:26:16;;;;;;;8.18;5.65;;;;;;;;;;5086930;28;20036;-63
2022/04/22 14:28:42;;;;;;;9.27;4.80;;;;;;;;;;5086085;28;20548;-63
2022/04/22 14:31:11;;;;;;;7.00;4.80;;;;;;;;;;5085875;28;20031;-63
2022/04/22 14:33:38;;;;;;;7.35;5.57;;;;;;;;;;5088632;28;20039;-64
2022/04/22 14:36:04;;;;;;;7.60;4.72;;;;;;;;;;5086855;28;20040;-64
2022/04/22 14:38:30;;;;;;;8.35;5.60;;;;;;;;;;5096765;28;20032;-64
2022/04/22 14:40:56;;;;;;;7.82;5.03;;;;;;;;;;5083182;28;20029;-64
2022/04/22 14:43:22;;;;;;;13.73;4.95;;;;;;;;;;5081382;28;20044;-63
2022/04/22 14:45:49;;;;;;;14.10;6.85;;;;;;;;;;5087780;28;20105;-63
2022/04/22 14:48:15;;;;;;;9.73;5.85;;;;;;;;;;5090828;28;20143;-63
2022/04/22 14:50:41;;;;;;;10.55;5.53;;;;;;;;;;5089135;28;20481;-63
2022/04/22 14:53:07;;;;;;;8.65;5.03;;;;;;;;;;5082045;28;20078;-63
2022/04/22 14:55:33;;;;;;;6.75;4.97;;;;;;;;;;5084712;28;20115;-63
2022/04/22 14:57:59;;;;;;;7.18;5.07;;;;;;;;;;5090984;28;20459;-63
2022/04/22 15:00:25;;;;;;;10.45;5.15;;;;;;;;;;5091373;28;20032;-63
2022/04/22 15:02:51;;;;;;;11.20;5.70;;;;;;;;;;5072294;28;20076;-63
2022/04/22 15:05:17;;;;;;;11.80;5.60;;;;;;;;;;5088290;28;20076;-63
2022/04/22 15:07:43;;;;;;;6.75;4.78;;;;;;;;;;5091253;28;20494;-64
2022/04/22 15:10:09;;;;;;;8.73;4.93;;;;;;;;;;5074108;28;20047;-63
2022/04/22 15:12:35;;;;;;;15.00;5.53;;;;;;;;;;5077230;28;20032;-63
2022/04/22 15:15:03;;;;;;;12.05;5.50;;;;;;;;;;5082403;28;20400;-63
2022/04/22 15:25:43;;;;;;;14.45;5.95;;;;;;;;;;5085129;28;20060;-64
2022/04/22 15:28:09;;;;;;;10.82;5.30;;;;;;;;;;5089892;28;20072;-63
2022/04/22 15:30:54;;;;;;;6.45;4.80;;;;;;;;;;5087588;28;20040;-63
2022/04/22 15:33:20;;;;;;;7.03;4.90;;;;;;;;;;5075983;28;20087;-63
2022/04/22 15:35:46;;;;;;;7.60;5.07;;;;;;;;;;5087201;28;20036;-63
2022/04/22 15:38:12;;;;;;;8.82;4.88;;;;;;;;;;5089990;28;20082;-63
2022/04/22 15:40:38;;;;;;;12.00;4.95;;;;;;;;;;5087191;28;20513;-63
2022/04/22 15:43:04;;;;;;;10.43;5.05;;;;;;;;;;5085413;28;20427;-63
2022/04/22 15:45:31;;;;;;;10.90;5.03;;;;;;;;;;5087736;28;20040;-63
2022/04/22 15:47:57;;;;;;;7.28;4.60;;;;;;;;;;5093885;28;20493;-63
2022/04/22 15:50:23;;;;;;;7.10;4.60;;;;;;;;;;5096988;28;20044;-63
2022/04/22 15:52:49;;;;;;;8.32;5.13;;;;;;;;;;5089970;28;20042;-63
2022/04/22 15:55:15;;;;;;;9.80;5.20;;;;;;;;;;5089688;28;20044;-63
2022/04/22 15:57:42;;;;;;;10.68;4.53;;;;;;;;;;5094098;28;20028;-63